Time;durP1;ratioP1;P1;durP2;ratioP2;P2;SDS_P1;SDS_P2;PMS_P1;PMS_P2;Temp;Humidity;BMP_temperature;BMP_pressure;BME280_temperature;BME280_humidity;BME280_pressure;Samples;Min_cycle;Max_cycle;Signal;HPM_P1;HPM_P2
2023/04/18 00:02:17;;;;;;;1.38;1.27;;;15.00;55.70;;;;;;5088518;27;45439;-72
2023/04/18 00:04:45;;;;;;;1.40;1.30;;;15.00;55.70;;;;;;5088157;27;46698;-73
2023/04/18 00:07:13;;;;;;;1.63;1.20;;;15.00;55.60;;;;;;5088145;27;45336;-72
2023/04/18 00:09:40;;;;;;;1.30;1.20;;;15.00;55.70;;;;;;5088138;27;45377;-72
2023/04/18 00:12:09;;;;;;;1.42;1.30;;;15.00;55.70;;;;;;5088314;27;45213;-72
2023/04/18 00:14:36;;;;;;;1.45;1.35;;;15.00;55.70;;;;;;5087985;27;45456;-72
2023/04/18 00:17:03;;;;;;;1.35;1.23;;;15.00;55.60;;;;;;5088015;27;45343;-72
2023/04/18 00:19:30;;;;;;;1.20;1.20;;;15.00;55.60;;;;;;5088084;27;45375;-72
2023/04/18 00:21:58;;;;;;;1.40;1.30;;;15.00;55.60;;;;;;5088248;27;45582;-72
2023/04/18 00:24:25;;;;;;;1.38;1.27;;;15.00;55.60;;;;;;5087791;27;45250;-73
2023/04/18 00:26:52;;;;;;;1.38;1.27;;;15.00;55.60;;;;;;5087908;27;45326;-72
2023/04/18 00:29:20;;;;;;;1.35;1.25;;;15.00;55.60;;;;;;5087953;27;45248;-72
2023/04/18 00:31:47;;;;;;;1.52;1.42;;;15.00;55.60;;;;;;5087821;27;45404;-73
2023/04/18 00:34:13;;;;;;;1.35;1.25;;;14.90;55.60;;;;;;5087442;27;47416;-72
2023/04/18 00:36:40;;;;;;;1.20;1.20;;;15.00;55.60;;;;;;5087751;27;45233;-73
2023/04/18 00:39:07;;;;;;;1.30;1.20;;;15.00;55.60;;;;;;5087815;27;45142;-73
2023/04/18 00:41:34;;;;;;;1.40;1.30;;;14.90;55.60;;;;;;5087940;27;45392;-72
2023/04/18 00:44:01;;;;;;;1.30;1.20;;;15.00;55.70;;;;;;5087503;27;46390;-73
2023/04/18 00:46:29;;;;;;;1.23;1.13;;;14.90;55.60;;;;;;5087228;27;45313;-72
2023/04/18 00:48:56;;;;;;;1.23;1.13;;;14.90;55.60;;;;;;5087696;27;45256;-72
2023/04/18 00:51:22;;;;;;;1.70;1.23;;;14.90;55.60;;;;;;5087610;27;45377;-73
2023/04/18 00:53:50;;;;;;;1.08;1.08;;;14.90;55.70;;;;;;5087369;27;46728;-72
2023/04/18 00:56:16;;;;;;;1.90;1.33;;;14.90;55.70;;;;;;5087645;28;45363;-73
2023/04/18 00:58:43;;;;;;;1.38;1.27;;;14.90;55.70;;;;;;5087580;27;45320;-73
2023/04/18 01:01:12;;;;;;;1.40;1.30;;;14.90;55.70;;;;;;5087491;27;45417;-73
2023/04/18 01:03:40;;;;;;;2.13;1.20;;;14.90;55.70;;;;;;5087330;27;47380;-73
2023/04/18 01:06:07;;;;;;;1.38;1.23;;;14.90;55.70;;;;;;5087230;27;45350;-72
2023/04/18 01:08:34;;;;;;;1.15;1.13;;;14.80;55.70;;;;;;5087452;27;45351;-72
2023/04/18 01:11:01;;;;;;;1.15;1.00;;;14.80;55.70;;;;;;5087256;27;45328;-72
2023/04/18 01:13:27;;;;;;;1.20;1.10;;;14.80;56.30;;;;;;5087085;27;45285;-72
2023/04/18 01:15:54;;;;;;;1.27;1.20;;;14.80;55.70;;;;;;5087157;27;45241;-71
2023/04/18 01:18:21;;;;;;;1.40;1.30;;;14.80;55.80;;;;;;5087277;27;45295;-73
2023/04/18 01:20:50;;;;;;;1.50;1.40;;;14.80;55.80;;;;;;5087291;27;45300;-72
2023/04/18 01:23:17;;;;;;;1.20;1.10;;;14.80;55.80;;;;;;5086875;27;45579;-72
2023/04/18 01:25:46;;;;;;;1.45;1.10;;;14.80;55.80;;;;;;5086973;27;45181;-73
2023/04/18 01:28:13;;;;;;;1.33;1.23;;;14.80;55.80;;;;;;5087090;27;45403;-72
2023/04/18 01:30:40;;;;;;;1.33;1.25;;;14.80;55.80;;;;;;5086914;27;45317;-72
2023/04/18 01:33:07;;;;;;;1.20;1.20;;;14.80;55.90;;;;;;5086816;27;46408;-72
2023/04/18 01:35:34;;;;;;;1.75;1.38;;;14.70;55.80;;;;;;5086837;27;45225;-72
2023/04/18 01:38:01;;;;;;;1.70;1.10;;;14.70;55.90;;;;;;5086891;27;45353;-73
2023/04/18 01:40:28;;;;;;;1.45;1.35;;;14.70;55.80;;;;;;5086847;27;45569;-73
2023/04/18 01:42:56;;;;;;;1.10;1.05;;;14.80;55.90;;;;;;5086714;27;45501;-72
2023/04/18 01:45:23;;;;;;;1.30;1.20;;;14.70;55.90;;;;;;5085753;27;45261;-73
2023/04/18 01:47:50;;;;;;;1.58;1.10;;;14.70;55.90;;;;;;5086743;27;45382;-72
2023/04/18 01:50:17;;;;;;;1.15;1.05;;;14.70;55.90;;;;;;5086639;27;45457;-72
2023/04/18 01:52:44;;;;;;;1.10;1.00;;;14.70;55.90;;;;;;5086421;27;45569;-72
2023/04/18 01:55:11;;;;;;;1.17;1.17;;;14.70;55.90;;;;;;5086504;27;45300;-72
2023/04/18 01:57:38;;;;;;;1.20;1.10;;;14.70;55.90;;;;;;5086684;27;45314;-73
2023/04/18 02:00:07;;;;;;;1.33;0.88;;;14.70;55.90;;;;;;5086674;27;45332;-72
2023/04/18 02:02:34;;;;;;;1.00;1.00;;;14.70;56.00;;;;;;5086191;27;46670;-72
2023/04/18 02:05:01;;;;;;;1.05;1.02;;;14.70;55.90;;;;;;5086299;27;45299;-72
2023/04/18 02:07:28;;;;;;;1.38;1.27;;;14.60;55.90;;;;;;5086541;27;45174;-73
2023/04/18 02:09:54;;;;;;;1.63;1.50;;;14.60;55.90;;;;;;5086501;27;45258;-72
2023/04/18 02:12:21;;;;;;;1.20;1.10;;;14.60;55.90;;;;;;5085979;27;46514;-73
2023/04/18 02:14:51;;;;;;;1.20;1.10;;;14.60;55.90;;;;;;5086378;27;45287;-73
2023/04/18 02:17:20;;;;;;;1.30;1.20;;;14.60;55.80;;;;;;5086287;27;45230;-72
2023/04/18 02:19:47;;;;;;;0.98;0.98;;;14.60;55.80;;;;;;5086339;27;45379;-72
2023/04/18 02:22:13;;;;;;;1.20;1.10;;;14.50;55.90;;;;;;5085997;27;45325;-73
2023/04/18 02:24:40;;;;;;;1.45;1.20;;;14.60;55.90;;;;;;5086054;27;45330;-73
2023/04/18 02:27:07;;;;;;;1.10;1.10;;;14.50;55.80;;;;;;5086196;27;45187;-72
2023/04/18 02:29:34;;;;;;;1.38;1.27;;;14.50;55.90;;;;;;5086267;27;45558;-73
2023/04/18 02:32:00;;;;;;;1.92;1.33;;;14.50;55.90;;;;;;5085761;27;45537;-72
2023/04/18 02:34:29;;;;;;;1.58;1.15;;;14.50;56.00;;;;;;5086001;27;45260;-72
2023/04/18 02:36:55;;;;;;;1.40;1.23;;;14.50;55.90;;;;;;5086087;27;45328;-72
2023/04/18 02:39:22;;;;;;;1.00;1.00;;;14.50;55.90;;;;;;5086186;27;45248;-72
2023/04/18 02:41:49;;;;;;;1.23;1.13;;;14.50;55.90;;;;;;5085660;27;46939;-72
2023/04/18 02:44:16;;;;;;;1.30;1.20;;;14.40;55.90;;;;;;5085772;27;45303;-72
2023/04/18 02:46:43;;;;;;;1.02;1.02;;;14.40;55.90;;;;;;5085760;27;45370;-72
2023/04/18 02:49:10;;;;;;;1.15;1.10;;;14.40;56.20;;;;;;5086106;27;45420;-72
2023/04/18 02:51:38;;;;;;;1.20;1.20;;;14.40;55.90;;;;;;5085427;27;45469;-72
2023/04/18 02:54:05;;;;;;;1.38;1.27;;;14.40;55.90;;;;;;5085744;27;45222;-72
2023/04/18 02:56:32;;;;;;;2.15;1.27;;;14.40;55.90;;;;;;5085767;27;45323;-72
2023/04/18 02:58:59;;;;;;;1.38;1.27;;;14.40;56.00;;;;;;5089283;27;45411;-72
2023/04/18 03:01:25;;;;;;;1.40;1.30;;;14.40;56.00;;;;;;5088958;27;45388;-72
2023/04/18 03:03:52;;;;;;;1.20;1.10;;;14.40;55.90;;;;;;5089187;27;45332;-72
2023/04/18 03:06:19;;;;;;;1.80;1.45;;;14.40;55.90;;;;;;5089331;27;45484;-73
2023/04/18 03:08:47;;;;;;;1.45;1.23;;;14.40;56.50;;;;;;5089459;27;45423;-74
2023/04/18 03:11:14;;;;;;;1.40;1.30;;;14.40;55.80;;;;;;5088691;27;46679;-73
2023/04/18 03:13:41;;;;;;;1.40;1.15;;;14.40;55.80;;;;;;5089104;27;45352;-74
2023/04/18 03:16:07;;;;;;;0.98;0.98;;;14.40;55.90;;;;;;5089150;27;45353;-73
2023/04/18 03:18:34;;;;;;;1.50;1.40;;;14.40;55.90;;;;;;5089245;27;45250;-73
2023/04/18 03:21:01;;;;;;;1.38;1.25;;;14.30;55.80;;;;;;5088936;27;46696;-73
2023/04/18 03:23:28;;;;;;;1.50;1.40;;;14.30;55.80;;;;;;5088890;27;45399;-74
2023/04/18 03:25:56;;;;;;;1.63;1.45;;;14.30;55.90;;;;;;5089073;27;45477;-74
2023/04/18 03:28:23;;;;;;;1.40;1.30;;;14.30;55.90;;;;;;5089049;27;45131;-74
2023/04/18 03:30:50;;;;;;;1.30;1.20;;;14.30;55.90;;;;;;5088666;27;47443;-74
2023/04/18 03:33:17;;;;;;;1.38;1.27;;;14.30;55.90;;;;;;5088779;27;45378;-73
2023/04/18 03:35:43;;;;;;;1.40;1.30;;;14.30;55.90;;;;;;5088861;27;45513;-73
2023/04/18 03:38:10;;;;;;;1.35;1.25;;;14.30;55.90;;;;;;5088985;27;45289;-74
2023/04/18 03:40:37;;;;;;;1.50;1.40;;;14.30;55.90;;;;;;5088323;27;45554;-74
2023/04/18 03:43:05;;;;;;;1.50;1.40;;;14.30;55.80;;;;;;5088594;27;45250;-74
2023/04/18 03:45:32;;;;;;;1.48;1.38;;;14.30;55.90;;;;;;5088494;27;45353;-74
2023/04/18 03:47:59;;;;;;;2.97;1.60;;;14.30;55.90;;;;;;5088726;27;45475;-73
2023/04/18 03:50:26;;;;;;;2.58;1.45;;;14.30;55.90;;;;;;5088335;27;47334;-73
2023/04/18 03:52:52;;;;;;;1.30;1.20;;;14.20;55.80;;;;;;5085787;27;45245;-73
2023/04/18 03:55:19;;;;;;;1.38;1.27;;;14.20;55.80;;;;;;5088480;27;45325;-73
2023/04/18 03:57:46;;;;;;;2.15;1.38;;;14.20;55.80;;;;;;5088830;27;45396;-73
2023/04/18 04:00:15;;;;;;;1.77;1.38;;;14.20;55.90;;;;;;5088101;27;47923;-73
2023/04/18 04:02:42;;;;;;;1.40;1.30;;;14.20;55.90;;;;;;5088249;27;45322;-73
2023/04/18 04:05:09;;;;;;;1.45;1.35;;;14.20;55.80;;;;;;5088326;27;45204;-73
2023/04/18 04:07:36;;;;;;;2.03;1.10;;;14.20;55.90;;;;;;5088316;27;45228;-73
2023/04/18 04:10:03;;;;;;;1.25;1.15;;;14.10;56.40;;;;;;5087803;27;46671;-73
2023/04/18 04:12:30;;;;;;;1.50;1.40;;;14.10;55.90;;;;;;5087957;27;45312;-73
2023/04/18 04:14:56;;;;;;;1.10;1.10;;;14.10;55.90;;;;;;5088411;27;45349;-72
2023/04/18 04:17:24;;;;;;;1.30;1.20;;;14.10;55.80;;;;;;5088383;27;45152;-72
2023/04/18 04:19:51;;;;;;;1.63;1.52;;;14.10;55.80;;;;;;5087889;27;45279;-73
2023/04/18 04:22:18;;;;;;;1.77;1.40;;;14.10;55.80;;;;;;5087844;27;45367;-72
2023/04/18 04:24:45;;;;;;;1.48;1.38;;;14.10;55.80;;;;;;5088088;27;45281;-73
2023/04/18 04:27:12;;;;;;;1.38;1.27;;;14.10;55.80;;;;;;5088215;27;45319;-73
2023/04/18 04:29:40;;;;;;;1.65;1.55;;;14.10;55.80;;;;;;5087604;27;45273;-73
2023/04/18 04:32:07;;;;;;;1.85;1.65;;;14.00;55.80;;;;;;5087606;27;45333;-73
2023/04/18 04:34:35;;;;;;;1.60;1.50;;;14.10;55.90;;;;;;5087969;27;45366;-73
2023/04/18 04:37:02;;;;;;;1.50;1.40;;;14.10;55.90;;;;;;5087986;27;45655;-73
2023/04/18 04:39:29;;;;;;;1.75;1.65;;;14.00;55.80;;;;;;5087655;27;45240;-72
2023/04/18 04:41:56;;;;;;;1.70;1.60;;;14.00;55.80;;;;;;5087542;27;45192;-73
2023/04/18 04:44:25;;;;;;;1.75;1.60;;;14.00;55.90;;;;;;5085004;27;45347;-73
2023/04/18 04:46:53;;;;;;;1.40;1.30;;;14.00;55.80;;;;;;5087904;27;45383;-72
2023/04/18 04:49:20;;;;;;;2.50;1.23;;;14.00;55.90;;;;;;5087364;27;46544;-72
2023/04/18 04:51:48;;;;;;;2.08;1.90;;;14.00;56.50;;;;;;5087295;27;45396;-73
2023/04/18 04:54:15;;;;;;;1.60;1.50;;;13.90;55.80;;;;;;5087597;27;45328;-73
2023/04/18 04:56:42;;;;;;;1.98;1.77;;;13.90;55.80;;;;;;5087637;27;45484;-73
2023/04/18 04:59:09;;;;;;;2.03;1.60;;;13.90;55.80;;;;;;5087256;27;45244;-73
2023/04/18 05:01:36;;;;;;;1.65;1.55;;;13.90;55.80;;;;;;5087298;27;45287;-73
2023/04/18 05:04:02;;;;;;;2.00;1.50;;;13.90;55.80;;;;;;5087562;27;45337;-73
2023/04/18 05:06:30;;;;;;;1.40;1.30;;;13.90;55.80;;;;;;5087664;27;45385;-73
2023/04/18 05:08:59;;;;;;;1.40;1.30;;;13.90;55.80;;;;;;5087210;27;45358;-73
2023/04/18 05:11:26;;;;;;;1.50;1.40;;;13.90;55.80;;;;;;5087164;27;45257;-73
2023/04/18 05:13:53;;;;;;;2.00;1.65;;;13.90;55.80;;;;;;5087274;27;45340;-72
2023/04/18 05:16:20;;;;;;;1.52;1.42;;;13.90;55.80;;;;;;5087378;27;45549;-73
2023/04/18 05:18:46;;;;;;;1.60;1.40;;;13.90;55.80;;;;;;5086978;27;45304;-73
2023/04/18 05:21:13;;;;;;;1.45;1.35;;;13.90;55.80;;;;;;5085809;27;45260;-73
2023/04/18 05:23:40;;;;;;;1.73;1.63;;;13.90;55.80;;;;;;5087124;27;45268;-72
2023/04/18 05:26:08;;;;;;;1.90;1.45;;;13.90;55.80;;;;;;5087155;27;45256;-72
2023/04/18 05:28:35;;;;;;;2.05;1.85;;;13.90;55.80;;;;;;5086784;27;46683;-73
2023/04/18 05:31:02;;;;;;;1.83;1.65;;;13.90;55.80;;;;;;5086604;27;45368;-73
2023/04/18 05:33:28;;;;;;;1.48;1.38;;;13.90;55.80;;;;;;5086807;27;45268;-72
2023/04/18 05:35:55;;;;;;;1.55;1.45;;;13.90;55.80;;;;;;5087124;27;45450;-73
2023/04/18 05:38:22;;;;;;;2.00;1.80;;;13.90;55.80;;;;;;5086877;27;46292;-73
2023/04/18 05:40:49;;;;;;;1.90;1.80;;;13.90;55.80;;;;;;5086583;27;45321;-73
2023/04/18 05:43:18;;;;;;;3.40;1.88;;;13.90;55.80;;;;;;5086839;27;45370;-73
2023/04/18 05:45:45;;;;;;;2.22;1.92;;;13.90;55.80;;;;;;5086857;27;45514;-73
2023/04/18 05:48:12;;;;;;;1.85;1.67;;;13.90;55.80;;;;;;5086415;27;46426;-73
2023/04/18 05:50:38;;;;;;;2.30;2.10;;;13.90;55.80;;;;;;5086438;27;45319;-73
2023/04/18 05:53:05;;;;;;;2.10;1.90;;;13.90;55.80;;;;;;5086437;27;45391;-73
2023/04/18 05:55:33;;;;;;;3.03;2.00;;;13.90;55.80;;;;;;5086815;27;45347;-73
2023/04/18 05:57:59;;;;;;;1.83;1.73;;;13.90;55.80;;;;;;5086411;27;45210;-72
2023/04/18 06:00:28;;;;;;;1.80;1.70;;;13.90;55.80;;;;;;5086304;27;45358;-73
2023/04/18 06:02:55;;;;;;;2.22;2.03;;;13.90;55.80;;;;;;5086501;27;45320;-73
2023/04/18 06:05:21;;;;;;;1.83;1.70;;;13.90;55.80;;;;;;5086597;27;45363;-73
2023/04/18 06:07:48;;;;;;;2.00;1.90;;;13.90;55.80;;;;;;5086220;27;45269;-73
2023/04/18 06:10:16;;;;;;;2.30;2.10;;;13.90;55.80;;;;;;5086141;27;45147;-72
2023/04/18 06:12:42;;;;;;;2.53;2.28;;;13.90;55.90;;;;;;5086267;27;45330;-73
2023/04/18 06:15:11;;;;;;;2.08;1.83;;;13.90;55.90;;;;;;5086433;27;45455;-73
2023/04/18 06:17:39;;;;;;;2.10;1.95;;;13.90;55.80;;;;;;5086123;27;45313;-73
2023/04/18 06:20:06;;;;;;;2.85;2.15;;;13.90;55.80;;;;;;5086028;27;45257;-72
2023/04/18 06:22:33;;;;;;;2.05;1.88;;;13.90;55.80;;;;;;5086382;27;45414;-74
2023/04/18 06:25:00;;;;;;;2.13;1.92;;;13.90;55.80;;;;;;5086412;27;45354;-73
2023/04/18 06:27:27;;;;;;;2.60;2.17;;;13.90;55.80;;;;;;5089129;27;45555;-74
2023/04/18 06:29:54;;;;;;;6.32;4.43;;;13.90;55.90;;;;;;5105718;27;45385;-73
2023/04/18 06:32:21;;;;;;;6.82;5.38;;;13.90;56.60;;;;;;5109289;27;45474;-72
2023/04/18 06:34:49;;;;;;;9.80;5.97;;;13.80;57.20;;;;;;5105059;27;45457;-73
2023/04/18 06:37:16;;;;;;;7.97;5.65;;;13.70;58.10;;;;;;5104650;27;45397;-73
2023/04/18 06:39:43;;;;;;;8.93;6.10;;;13.70;57.90;;;;;;5106212;27;45370;-73
2023/04/18 06:42:10;;;;;;;9.68;6.13;;;13.70;58.40;;;;;;5106089;27;45325;-74
2023/04/18 06:44:37;;;;;;;7.57;6.13;;;13.60;58.70;;;;;;5105853;27;45118;-74
2023/04/18 06:47:03;;;;;;;8.52;5.57;;;13.50;59.00;;;;;;5105763;27;45277;-74
2023/04/18 06:49:30;;;;;;;8.43;6.25;;;13.50;59.10;;;;;;5105604;27;45335;-74
2023/04/18 06:51:58;;;;;;;9.20;5.50;;;13.50;59.30;;;;;;5107901;27;45492;-73
2023/04/18 06:54:25;;;;;;;9.30;5.45;;;13.40;59.30;;;;;;5106249;27;45203;-73
2023/04/18 06:56:52;;;;;;;8.98;5.72;;;13.50;59.10;;;;;;5106139;27;46659;-73
2023/04/18 06:59:20;;;;;;;6.95;5.40;;;13.50;58.90;;;;;;5103384;27;45367;-72
2023/04/18 07:01:47;;;;;;;10.57;5.13;;;13.50;58.70;;;;;;5105756;27;45352;-73
2023/04/18 07:04:14;;;;;;;14.35;5.18;;;13.60;58.60;;;;;;5106518;27;45392;-73
2023/04/18 07:06:42;;;;;;;8.55;5.30;;;13.60;58.40;;;;;;5106116;27;46219;-72
2023/04/18 07:09:10;;;;;;;7.03;4.97;;;13.60;58.20;;;;;;5106177;27;45308;-72
2023/04/18 07:11:37;;;;;;;11.15;5.45;;;13.60;58.10;;;;;;5105209;27;45376;-72
2023/04/18 07:14:04;;;;;;;8.02;4.90;;;13.70;58.00;;;;;;5105676;27;45236;-72
2023/04/18 07:16:31;;;;;;;6.13;4.55;;;13.70;57.90;;;;;;5085349;27;45314;-73
2023/04/18 07:18:58;;;;;;;5.32;4.03;;;13.70;57.80;;;;;;5102590;27;45204;-73
2023/04/18 07:21:25;;;;;;;6.07;4.45;;;13.70;57.70;;;;;;5105807;27;45636;-73
2023/04/18 07:23:52;;;;;;;10.30;4.75;;;13.70;57.70;;;;;;5105412;27;45303;-73
2023/04/18 07:26:20;;;;;;;7.72;4.22;;;13.70;57.50;;;;;;5108935;27;45497;-73
2023/04/18 07:28:47;;;;;;;7.93;4.88;;;13.70;57.50;;;;;;5104713;27;45451;-73
2023/04/18 07:31:15;;;;;;;6.70;4.70;;;13.80;57.50;;;;;;5108011;27;45280;-73
2023/04/18 07:33:42;;;;;;;4.63;3.80;;;13.80;57.30;;;;;;5105843;27;45513;-73
2023/04/18 07:36:09;;;;;;;6.55;4.78;;;13.80;57.30;;;;;;5105178;27;47087;-73
2023/04/18 07:38:36;;;;;;;8.40;3.75;;;13.80;57.30;;;;;;5105592;27;45395;-73
2023/04/18 07:41:02;;;;;;;4.70;3.97;;;13.80;57.20;;;;;;5105251;27;45119;-73
2023/04/18 07:43:31;;;;;;;5.70;4.47;;;13.80;57.20;;;;;;5106855;27;45543;-73
2023/04/18 07:45:57;;;;;;;9.20;4.22;;;13.80;57.20;;;;;;5108187;27;45304;-72
2023/04/18 07:48:25;;;;;;;6.82;4.10;;;13.80;57.10;;;;;;5108916;27;45309;-72
2023/04/18 07:50:52;;;;;;;7.45;3.72;;;13.80;57.20;;;;;;5108751;27;45261;-72
2023/04/18 07:53:19;;;;;;;6.55;4.20;;;13.80;57.10;;;;;;5109088;27;45398;-73
2023/04/18 07:55:46;;;;;;;4.65;4.15;;;13.80;57.10;;;;;;5107626;27;47586;-72
2023/04/18 07:58:12;;;;;;;6.78;3.60;;;13.80;57.00;;;;;;5108766;27;45373;-73
2023/04/18 08:00:41;;;;;;;6.85;4.10;;;13.90;57.00;;;;;;5108302;27;45255;-72
2023/04/18 08:03:09;;;;;;;6.93;4.25;;;13.80;56.90;;;;;;5108974;27;45324;-72
2023/04/18 08:05:36;;;;;;;6.22;3.75;;;13.90;56.90;;;;;;5108029;27;45561;-73
2023/04/18 08:08:02;;;;;;;4.97;3.67;;;13.90;56.90;;;;;;5108897;27;45400;-73
2023/04/18 08:10:29;;;;;;;4.97;3.70;;;13.90;57.40;;;;;;5108447;27;45394;-73
2023/04/18 08:12:56;;;;;;;5.43;3.08;;;13.90;56.80;;;;;;5108720;27;45264;-73
2023/04/18 08:15:23;;;;;;;5.22;3.90;;;13.90;56.90;;;;;;5107686;27;47290;-72
2023/04/18 08:17:51;;;;;;;5.05;3.88;;;13.90;56.80;;;;;;5107827;27;45359;-73
2023/04/18 08:20:18;;;;;;;5.68;3.97;;;13.90;56.70;;;;;;5107619;27;45468;-72
2023/04/18 08:22:45;;;;;;;4.90;3.78;;;14.00;56.70;;;;;;5107520;27;45404;-73
2023/04/18 08:25:11;;;;;;;4.93;3.13;;;13.90;56.60;;;;;;5093569;27;46612;-73
2023/04/18 08:27:38;;;;;;;6.65;3.83;;;14.00;56.70;;;;;;5108079;27;45286;-73
2023/04/18 08:30:06;;;;;;;3.83;3.42;;;14.00;56.60;;;;;;5108249;27;45391;-73
2023/04/18 08:32:33;;;;;;;3.95;3.50;;;14.00;56.50;;;;;;5108541;27;45280;-73
2023/04/18 08:35:02;;;;;;;4.03;3.40;;;14.00;56.60;;;;;;5107989;27;46395;-73
2023/04/18 08:37:30;;;;;;;4.25;3.72;;;14.00;56.60;;;;;;5107912;27;45359;-73
2023/04/18 08:39:57;;;;;;;6.43;3.72;;;14.00;56.60;;;;;;5114315;27;45449;-72
2023/04/18 08:42:24;;;;;;;5.15;3.65;;;14.00;56.60;;;;;;5107228;27;45505;-71
2023/04/18 08:44:51;;;;;;;4.97;3.67;;;14.00;56.50;;;;;;5107453;27;46882;-73
2023/04/18 08:47:19;;;;;;;3.92;2.95;;;14.10;56.50;;;;;;5107951;27;45340;-72
2023/04/18 08:49:46;;;;;;;5.45;3.67;;;14.00;56.50;;;;;;5107420;27;45370;-74
2023/04/18 08:52:15;;;;;;;4.10;3.53;;;14.10;56.50;;;;;;5107618;27;45416;-73
2023/04/18 08:54:43;;;;;;;3.30;3.00;;;14.00;56.50;;;;;;5106990;27;46940;-73
2023/04/18 08:57:11;;;;;;;4.38;3.42;;;14.10;56.50;;;;;;5110720;27;45402;-72
2023/04/18 08:59:38;;;;;;;3.58;3.03;;;14.10;56.50;;;;;;5107715;27;45312;-72
2023/04/18 09:02:07;;;;;;;5.65;3.05;;;14.10;56.50;;;;;;5108409;27;45485;-73
2023/04/18 09:04:38;;;;;;;4.50;3.13;;;14.10;56.50;;;;;;5096857;27;46408;-73
2023/04/18 09:07:05;;;;;;;6.35;3.50;;;14.10;56.50;;;;;;5104851;27;45385;-73
2023/04/18 09:09:46;;;;;;;4.45;3.40;;;14.10;56.50;;;;;;5106303;27;45252;-74
2023/04/18 09:12:14;;;;;;;3.92;3.30;;;14.10;56.40;;;;;;5106702;27;45315;-73
2023/04/18 09:14:44;;;;;;;4.03;3.13;;;14.10;56.40;;;;;;5107161;27;45500;-72
2023/04/18 09:17:11;;;;;;;4.55;3.58;;;14.10;56.30;;;;;;5107187;27;45366;-74
2023/04/18 09:19:44;;;;;;;3.88;3.17;;;14.10;56.50;;;;;;5107472;27;45391;-73
2023/04/18 09:22:10;;;;;;;3.55;3.25;;;14.10;56.40;;;;;;5108215;27;45442;-73
2023/04/18 09:24:38;;;;;;;5.80;3.83;;;14.10;56.40;;;;;;5107204;27;45319;-72
2023/04/18 09:27:13;;;;;;;4.00;3.15;;;14.10;56.30;;;;;;5105242;27;45388;-73
2023/04/18 09:29:45;;;;;;;4.85;3.42;;;14.10;56.40;;;;;;5107180;27;45320;-73
2023/04/18 09:32:11;;;;;;;4.50;3.13;;;14.10;56.40;;;;;;5106796;27;45477;-73
2023/04/18 09:34:41;;;;;;;5.88;3.55;;;14.10;56.90;;;;;;5106039;27;47333;-73
2023/04/18 09:37:09;;;;;;;4.63;3.38;;;14.20;56.40;;;;;;5109047;27;45331;-73
2023/04/18 09:39:37;;;;;;;4.60;3.63;;;14.20;56.40;;;;;;5109651;27;45527;-73
2023/04/18 09:42:04;;;;;;;4.68;3.42;;;14.20;56.40;;;;;;5107517;27;45390;-73
2023/04/18 09:44:32;;;;;;;4.32;2.90;;;14.20;56.30;;;;;;5106559;27;46912;-70
2023/04/18 09:46:59;;;;;;;4.55;3.10;;;14.20;56.90;;;;;;5106408;27;45250;-73
2023/04/18 09:49:26;;;;;;;5.40;3.30;;;14.20;56.30;;;;;;5106970;27;45362;-73
2023/04/18 09:51:55;;;;;;;3.60;3.10;;;14.20;56.30;;;;;;5106893;27;45635;-73
2023/04/18 09:54:23;;;;;;;4.53;3.28;;;14.20;56.30;;;;;;5106495;27;45375;-73
2023/04/18 09:56:52;;;;;;;4.10;3.33;;;14.20;56.40;;;;;;5105354;27;45138;-73
2023/04/18 09:59:36;;;;;;;3.28;2.97;;;14.20;56.20;;;;;;5106199;27;45382;-73
2023/04/18 10:02:04;;;;;;;4.05;3.05;;;14.20;56.30;;;;;;5092462;27;45423;-72
2023/04/18 10:04:31;;;;;;;5.57;3.60;;;14.20;56.30;;;;;;5106585;27;45950;-72
2023/04/18 10:06:58;;;;;;;3.85;3.00;;;14.20;56.40;;;;;;5105532;27;45252;-73
2023/04/18 10:09:25;;;;;;;5.50;3.17;;;14.20;56.30;;;;;;5105177;27;45616;-72
2023/04/18 10:11:52;;;;;;;4.75;3.05;;;14.20;56.30;;;;;;5110126;27;45627;-73
2023/04/18 10:14:19;;;;;;;3.00;2.70;;;14.30;56.30;;;;;;5106208;27;45732;-73
2023/04/18 10:16:47;;;;;;;3.17;2.78;;;14.30;56.40;;;;;;5107138;27;45328;-73
2023/04/18 10:19:21;;;;;;;4.13;3.00;;;14.30;56.40;;;;;;5111245;27;45479;-73
2023/04/18 10:21:52;;;;;;;4.40;2.72;;;14.20;56.90;;;;;;5094832;27;45466;-73
2023/04/18 10:24:46;;;;;;;3.53;3.20;;;14.30;56.40;;;;;;5096324;27;46418;-73
2023/04/18 10:27:14;;;;;;;4.63;3.35;;;14.30;56.40;;;;;;5103907;27;45499;-73
2023/04/18 10:29:47;;;;;;;4.25;2.83;;;14.30;56.30;;;;;;5106298;27;45316;-72
2023/04/18 10:32:16;;;;;;;3.15;2.85;;;14.30;56.30;;;;;;5106623;27;45379;-72
2023/04/18 10:34:43;;;;;;;4.88;2.95;;;14.30;56.30;;;;;;5105620;27;47369;-72
2023/04/18 10:37:11;;;;;;;3.75;3.08;;;14.30;56.20;;;;;;5105701;27;45279;-73
2023/04/18 10:39:48;;;;;;;5.47;2.72;;;14.30;56.90;;;;;;5105393;27;45454;-72
2023/04/18 10:42:15;;;;;;;3.92;2.90;;;14.30;56.20;;;;;;5085990;27;45391;-72
2023/04/18 10:44:42;;;;;;;3.42;3.13;;;14.30;56.20;;;;;;5094099;27;45301;-72
2023/04/18 10:47:23;;;;;;;2.97;2.60;;;14.30;56.30;;;;;;5105657;27;45698;-72
2023/04/18 10:49:57;;;;;;;3.67;2.90;;;14.30;56.30;;;;;;5106340;27;45366;-72
2023/04/18 10:52:24;;;;;;;4.68;3.05;;;14.30;56.30;;;;;;5106771;27;45355;-73
2023/04/18 10:54:53;;;;;;;3.53;3.10;;;14.30;56.40;;;;;;5096419;27;46681;-73
2023/04/18 10:57:20;;;;;;;4.20;3.10;;;14.40;56.30;;;;;;5093549;27;45533;-72
2023/04/18 10:59:49;;;;;;;4.28;3.17;;;14.40;56.30;;;;;;5106087;27;45295;-73
2023/04/18 11:02:23;;;;;;;4.22;2.83;;;14.40;56.40;;;;;;5106187;27;45366;-72
2023/04/18 11:04:50;;;;;;;4.13;2.63;;;14.40;56.40;;;;;;5104503;27;46391;-72
2023/04/18 11:07:17;;;;;;;4.40;3.10;;;14.40;56.40;;;;;;5105396;27;46923;-73
2023/04/18 11:09:52;;;;;;;4.47;3.08;;;14.40;56.30;;;;;;5105874;27;45261;-72
2023/04/18 11:12:19;;;;;;;3.10;2.90;;;14.40;56.40;;;;;;5111789;27;45440;-72
2023/04/18 11:14:47;;;;;;;3.75;2.88;;;14.40;56.30;;;;;;5118490;27;46714;-72
2023/04/18 11:17:19;;;;;;;3.78;2.95;;;14.40;56.30;;;;;;5105347;27;45328;-72
2023/04/18 11:19:46;;;;;;;3.88;3.28;;;14.40;56.30;;;;;;5111019;27;45310;-73
2023/04/18 11:22:12;;;;;;;4.97;3.33;;;14.40;56.30;;;;;;5109515;27;45389;-72
2023/04/18 11:24:39;;;;;;;3.88;2.95;;;14.40;56.30;;;;;;5109231;27;46431;-72
2023/04/18 11:27:08;;;;;;;4.68;3.30;;;14.40;56.20;;;;;;5107813;27;45458;-73
2023/04/18 11:29:35;;;;;;;4.40;2.75;;;14.50;56.30;;;;;;5107945;27;45544;-72
2023/04/18 11:32:02;;;;;;;3.60;2.90;;;14.50;56.30;;;;;;5109088;27;45482;-72
2023/04/18 11:34:30;;;;;;;5.18;3.45;;;14.50;56.20;;;;;;5108572;27;46399;-73
2023/04/18 11:36:57;;;;;;;4.60;3.53;;;14.50;56.30;;;;;;5109096;27;45307;-72
2023/04/18 11:39:24;;;;;;;4.32;3.38;;;14.50;56.30;;;;;;5108585;27;45378;-71
2023/04/18 11:41:50;;;;;;;4.85;3.72;;;14.50;56.30;;;;;;5109276;27;45278;-73
2023/04/18 11:44:17;;;;;;;4.95;3.13;;;14.50;56.30;;;;;;5110491;27;45491;-73
2023/04/18 11:46:44;;;;;;;3.30;2.97;;;14.60;56.80;;;;;;5112731;27;45468;-73
2023/04/18 11:49:25;;;;;;;4.00;3.20;;;14.60;56.20;;;;;;5109095;27;45471;-73
2023/04/18 11:51:53;;;;;;;4.07;3.50;;;14.60;56.30;;;;;;5111009;27;45859;-72
2023/04/18 11:54:37;;;;;;;3.58;3.15;;;14.60;56.00;;;;;;5108327;27;46679;-72
2023/04/18 11:57:03;;;;;;;5.28;3.45;;;14.70;56.20;;;;;;5108820;27;45358;-71
2023/04/18 11:59:30;;;;;;;4.45;3.22;;;14.70;55.90;;;;;;5112334;27;45422;-72
2023/04/18 12:02:01;;;;;;;3.65;3.08;;;14.70;56.10;;;;;;5111795;27;45467;-73
2023/04/18 12:04:27;;;;;;;4.38;3.60;;;14.70;56.10;;;;;;5108620;27;45733;-72
2023/04/18 12:06:56;;;;;;;4.10;3.08;;;14.80;56.10;;;;;;5112754;27;45311;-72
2023/04/18 12:09:24;;;;;;;3.78;3.00;;;14.80;56.20;;;;;;5111271;27;45428;-73
2023/04/18 12:11:59;;;;;;;3.92;3.05;;;14.80;56.20;;;;;;5109218;27;45612;-73
2023/04/18 12:14:26;;;;;;;3.92;3.60;;;14.80;56.10;;;;;;5110463;27;46906;-72
2023/04/18 12:16:53;;;;;;;5.38;3.83;;;14.90;56.20;;;;;;5113444;27;45329;-73
2023/04/18 12:19:20;;;;;;;4.43;3.63;;;14.90;56.30;;;;;;5107061;27;45568;-73
2023/04/18 12:21:59;;;;;;;5.10;3.70;;;14.90;56.20;;;;;;5112326;27;45506;-73
2023/04/18 12:24:27;;;;;;;4.35;3.30;;;14.90;56.30;;;;;;5108390;27;45716;-74
2023/04/18 12:26:56;;;;;;;5.57;3.45;;;14.90;56.30;;;;;;5110162;27;45300;-74
2023/04/18 12:29:23;;;;;;;5.72;3.72;;;14.90;56.10;;;;;;5106792;27;45345;-72
2023/04/18 12:31:49;;;;;;;4.07;3.40;;;15.00;56.30;;;;;;5108890;27;45455;-73
2023/04/18 12:34:16;;;;;;;5.72;3.92;;;15.00;56.20;;;;;;5110392;27;45450;-73
2023/04/18 12:36:43;;;;;;;3.75;3.35;;;15.00;56.10;;;;;;5109558;27;45283;-73
2023/04/18 12:39:12;;;;;;;4.10;3.10;;;15.10;56.10;;;;;;5114355;27;45711;-72
2023/04/18 12:41:38;;;;;;;4.70;3.60;;;15.10;55.80;;;;;;5113464;27;45573;-74
2023/04/18 12:44:05;;;;;;;4.68;3.35;;;15.20;55.90;;;;;;5107451;27;45520;-74
2023/04/18 12:46:32;;;;;;;4.53;3.20;;;15.20;55.90;;;;;;5108010;27;45475;-74
2023/04/18 12:48:59;;;;;;;4.90;3.45;;;15.30;55.80;;;;;;5107884;27;45419;-73